Time;durP1;ratioP1;P1;durP2;ratioP2;P2;SDS_P1;SDS_P2;PMS_P1;PMS_P2;Temp;Humidity;BMP_temperature;BMP_pressure;BME280_temperature;BME280_humidity;BME280_pressure;Samples;Min_cycle;Max_cycle;Signal;HPM_P1;HPM_P2
2022/03/05 00:00:55;;;;;;;;;;;20.50;37.90;;;;;;5095453;28;19975;-45
2022/03/05 00:03:21;;;;;;;;;;;20.40;37.80;;;;;;5099322;28;19988;-46
2022/03/05 00:05:48;;;;;;;;;;;20.50;37.80;;;;;;5096076;28;19920;-48
2022/03/05 00:08:15;;;;;;;;;;;20.40;37.80;;;;;;5096530;28;19931;-45
2022/03/05 00:10:45;;;;;;;;;;;20.40;37.80;;;;;;5106806;28;19924;-47
2022/03/05 00:13:12;;;;;;;;;;;20.40;37.80;;;;;;5096275;28;19983;-45
2022/03/05 00:15:42;;;;;;;;;;;20.40;37.70;;;;;;5092709;28;19919;-45
2022/03/05 00:18:09;;;;;;;;;;;20.40;37.70;;;;;;5116582;28;20010;-41
2022/03/05 00:20:37;;;;;;;;;;;20.40;37.70;;;;;;5098629;28;20376;-44
2022/03/05 00:23:04;;;;;;;;;;;20.40;37.70;;;;;;5096359;28;19989;-48
2022/03/05 00:25:31;;;;;;;;;;;20.40;37.70;;;;;;5091980;28;19959;-43
2022/03/05 00:27:59;;;;;;;;;;;20.40;37.70;;;;;;5093953;28;19995;-44
2022/03/05 00:30:26;;;;;;;;;;;20.40;37.70;;;;;;5085662;28;20018;-42
2022/03/05 00:32:52;;;;;;;;;;;20.40;37.60;;;;;;5108634;28;19920;-43
2022/03/05 00:35:19;;;;;;;;;;;20.40;37.70;;;;;;5093361;28;19928;-43
2022/03/05 00:37:46;;;;;;;;;;;20.40;37.60;;;;;;5092698;28;20434;-46
2022/03/05 00:40:12;;;;;;;;;;;20.40;37.60;;;;;;5095585;28;19985;-44
2022/03/05 00:42:39;;;;;;;;;;;20.40;37.60;;;;;;5096311;28;19927;-43
2022/03/05 00:45:08;;;;;;;;;;;20.40;37.60;;;;;;5096110;28;19923;-47
2022/03/05 00:47:36;;;;;;;;;;;20.40;37.60;;;;;;5095953;28;19924;-45
2022/03/05 00:50:05;;;;;;;;;;;20.40;37.60;;;;;;5094407;28;19923;-46
2022/03/05 00:52:32;;;;;;;;;;;20.40;37.60;;;;;;5096666;28;19924;-46
2022/03/05 00:54:59;;;;;;;;;;;20.40;37.60;;;;;;5093529;28;19919;-41
2022/03/05 00:57:26;;;;;;;;;;;20.40;37.50;;;;;;5095671;28;19924;-44
2022/03/05 00:59:54;;;;;;;;;;;20.40;37.50;;;;;;5096233;28;19986;-45
2022/03/05 01:02:22;;;;;;;;;;;20.40;37.50;;;;;;5096323;28;19924;-45
2022/03/05 01:04:49;;;;;;;;;;;20.40;37.50;;;;;;5115361;27;20392;-41
2022/03/05 01:07:16;;;;;;;;;;;20.40;37.50;;;;;;5115185;28;19984;-45
2022/03/05 01:09:43;;;;;;;;;;;20.40;37.50;;;;;;5090183;28;19927;-43
2022/03/05 01:12:10;;;;;;;;;;;20.30;37.40;;;;;;5096440;28;20349;-44
2022/03/05 01:14:36;;;;;;;;;;;20.30;37.40;;;;;;5100316;28;19949;-47
2022/03/05 01:17:03;;;;;;;;;;;20.30;37.40;;;;;;5112370;27;19919;-44
2022/03/05 01:19:31;;;;;;;;;;;20.40;37.50;;;;;;5113928;28;19919;-42
2022/03/05 01:21:58;;;;;;;;;;;20.40;37.40;;;;;;5095863;28;19924;-42
2022/03/05 01:24:25;;;;;;;;;;;20.40;37.40;;;;;;5095374;28;20372;-42
2022/03/05 01:26:52;;;;;;;;;;;20.30;37.40;;;;;;5094936;28;19928;-43
2022/03/05 01:29:18;;;;;;;;;;;20.30;37.40;;;;;;5095303;28;19940;-46
2022/03/05 01:31:45;;;;;;;;;;;20.30;37.30;;;;;;5096908;28;19955;-45
2022/03/05 01:34:12;;;;;;;;;;;20.30;37.30;;;;;;5076237;28;19924;-43
2022/03/05 01:36:40;;;;;;;;;;;20.30;37.30;;;;;;5112962;27;20014;-42
2022/03/05 01:39:06;;;;;;;;;;;20.30;37.30;;;;;;5085212;28;20018;-45
2022/03/05 01:41:33;;;;;;;;;;;20.30;37.30;;;;;;5100571;28;19930;-48
2022/03/05 01:44:00;;;;;;;;;;;20.30;37.20;;;;;;5089789;28;20062;-44
2022/03/05 01:46:28;;;;;;;;;;;20.30;37.20;;;;;;5098938;28;20199;-44
2022/03/05 01:48:55;;;;;;;;;;;20.30;37.20;;;;;;5085502;28;19931;-42
2022/03/05 01:51:21;;;;;;;;;;;20.30;37.20;;;;;;5096634;28;19934;-46
2022/03/05 01:53:49;;;;;;;;;;;20.30;37.20;;;;;;5130870;27;20377;-41
2022/03/05 01:56:16;;;;;;;;;;;20.30;37.10;;;;;;5096132;28;19924;-45
2022/03/05 01:58:43;;;;;;;;;;;20.30;37.10;;;;;;5095100;28;20361;-41
2022/03/05 02:01:09;;;;;;;;;;;20.30;37.10;;;;;;5096930;28;19919;-44
2022/03/05 02:03:36;;;;;;;;;;;20.30;37.10;;;;;;5095359;28;19992;-45
2022/03/05 02:06:03;;;;;;;;;;;20.30;37.10;;;;;;5093770;28;19920;-42
2022/03/05 02:08:30;;;;;;;;;;;20.30;37.00;;;;;;5095451;28;20318;-46
2022/03/05 02:10:58;;;;;;;;;;;20.30;37.10;;;;;;5095164;28;19990;-45
2022/03/05 02:13:27;;;;;;;;;;;20.30;37.00;;;;;;5102596;28;19935;-46
2022/03/05 02:15:54;;;;;;;;;;;20.30;37.00;;;;;;5095609;28;20019;-45
2022/03/05 02:18:20;;;;;;;;;;;20.30;37.00;;;;;;5085707;28;20023;-44
2022/03/05 02:20:49;;;;;;;;;;;20.30;37.00;;;;;;5096224;28;19951;-44
2022/03/05 02:23:15;;;;;;;;;;;20.30;37.00;;;;;;5094137;28;19942;-44
2022/03/05 02:25:50;;;;;;;;;;;20.30;37.00;;;;;;5095544;28;20265;-43
2022/03/05 02:28:17;;;;;;;;;;;20.20;36.90;;;;;;5090734;28;19964;-44
2022/03/05 02:30:44;;;;;;;;;;;20.30;36.90;;;;;;5086009;28;19999;-44
2022/03/05 02:33:10;;;;;;;;;;;20.20;36.90;;;;;;5099804;28;19920;-44
2022/03/05 02:35:37;;;;;;;;;;;20.20;36.90;;;;;;5094951;28;19986;-43
2022/03/05 02:38:05;;;;;;;;;;;20.20;36.80;;;;;;5100691;28;19972;-43
2022/03/05 02:40:32;;;;;;;;;;;20.20;36.80;;;;;;5093938;28;19932;-44
2022/03/05 02:42:58;;;;;;;;;;;20.20;36.80;;;;;;5094852;28;19927;-44
2022/03/05 02:45:25;;;;;;;;;;;20.20;36.80;;;;;;5077431;28;20440;-45
2022/03/05 02:47:52;;;;;;;;;;;20.20;36.70;;;;;;5101078;28;19931;-45
2022/03/05 02:50:19;;;;;;;;;;;20.20;36.70;;;;;;5095962;28;20001;-45
2022/03/05 02:52:45;;;;;;;;;;;20.20;36.70;;;;;;5092243;28;19931;-47
2022/03/05 02:55:13;;;;;;;;;;;20.20;36.70;;;;;;5113144;28;19920;-44
2022/03/05 02:57:40;;;;;;;;;;;20.20;36.70;;;;;;5099788;28;19972;-43
2022/03/05 03:00:10;;;;;;;;;;;20.20;36.70;;;;;;5092753;28;19931;-45
2022/03/05 03:02:38;;;;;;;;;;;20.20;36.70;;;;;;5113024;28;19980;-46
2022/03/05 03:05:05;;;;;;;;;;;20.20;36.60;;;;;;5094640;28;19926;-43
2022/03/05 03:07:32;;;;;;;;;;;20.20;36.60;;;;;;5101019;28;19924;-44
2022/03/05 03:09:59;;;;;;;;;;;20.20;36.60;;;;;;5095147;28;20364;-45
2022/03/05 03:12:27;;;;;;;;;;;20.20;36.60;;;;;;5092582;28;19924;-47
2022/03/05 03:14:57;;;;;;;;;;;20.20;36.60;;;;;;5094788;28;20377;-45
2022/03/05 03:17:24;;;;;;;;;;;20.20;36.60;;;;;;5113089;28;20030;-42
2022/03/05 03:19:50;;;;;;;;;;;20.20;36.50;;;;;;5094610;28;19920;-43
2022/03/05 03:22:18;;;;;;;;;;;20.20;36.50;;;;;;5096778;28;19928;-43
2022/03/05 03:24:45;;;;;;;;;;;20.20;36.50;;;;;;5107770;28;20028;-44
2022/03/05 03:27:11;;;;;;;;;;;20.20;36.50;;;;;;5091455;28;19924;-47
2022/03/05 03:29:40;;;;;;;;;;;20.20;36.50;;;;;;5100243;28;19964;-47
2022/03/05 03:32:07;;;;;;;;;;;20.20;36.40;;;;;;5090591;28;20317;-43
2022/03/05 03:34:36;;;;;;;;;;;20.20;36.40;;;;;;5112190;28;20608;-41
2022/03/05 03:37:03;;;;;;;;;;;20.20;36.50;;;;;;5109497;28;19990;-44
2022/03/05 03:39:30;;;;;;;;;;;20.20;36.40;;;;;;5080352;28;20186;-48
2022/03/05 03:41:57;;;;;;;;;;;20.20;36.40;;;;;;5088498;28;19934;-44
2022/03/05 03:44:24;;;;;;;;;;;20.20;36.40;;;;;;5113665;28;19930;-45
2022/03/05 03:46:53;;;;;;;;;;;20.20;36.40;;;;;;5115532;28;20349;-46
2022/03/05 03:49:20;;;;;;;;;;;20.20;36.40;;;;;;5090938;28;20015;-47
2022/03/05 03:51:47;;;;;;;;;;;20.20;36.40;;;;;;5084806;28;19923;-45
2022/03/05 03:54:13;;;;;;;;;;;20.20;36.40;;;;;;5111395;28;19928;-46
2022/03/05 03:56:40;;;;;;;;;;;20.20;36.30;;;;;;5108842;28;20023;-43
2022/03/05 03:59:07;;;;;;;;;;;20.20;36.40;;;;;;5085012;28;19926;-49
2022/03/05 04:01:33;;;;;;;;;;;20.10;36.20;;;;;;5089777;28;19924;-46
2022/03/05 04:04:01;;;;;;;;;;;20.10;36.20;;;;;;5111299;28;20009;-46
2022/03/05 04:08:41;;;;;;;;;;;20.10;36.20;;;;;;5092521;28;20051;-46
2022/03/05 04:09:14;;;;;;;;;;;20.20;36.30;;;;;;5091043;28;19927;-46
2022/03/05 04:11:41;;;;;;;;;;;20.10;36.20;;;;;;5092961;28;19920;-42
2022/03/05 04:14:08;;;;;;;;;;;20.20;36.20;;;;;;5098762;28;19976;-42
2022/03/05 04:16:34;;;;;;;;;;;20.10;36.10;;;;;;5087913;28;19920;-42
2022/03/05 04:19:02;;;;;;;;;;;20.10;36.10;;;;;;5089767;28;20015;-44
2022/03/05 04:21:29;;;;;;;;;;;20.10;36.10;;;;;;5096238;28;20190;-43
2022/03/05 04:23:56;;;;;;;;;;;20.10;36.10;;;;;;5091714;28;19976;-46
2022/03/05 04:26:24;;;;;;;;;;;20.10;36.10;;;;;;5096438;28;19941;-44
2022/03/05 04:28:50;;;;;;;;;;;20.10;36.00;;;;;;5099823;28;19920;-44
2022/03/05 04:31:17;;;;;;;;;;;20.10;36.00;;;;;;5097899;28;19919;-46
2022/03/05 04:33:44;;;;;;;;;;;20.10;36.00;;;;;;5094266;28;20026;-45
2022/03/05 04:36:12;;;;;;;;;;;20.10;36.00;;;;;;5098509;28;19986;-42
2022/03/05 04:38:38;;;;;;;;;;;20.10;36.00;;;;;;5098542;28;19923;-43
2022/03/05 04:41:05;;;;;;;;;;;20.10;35.90;;;;;;5090282;28;19920;-43
2022/03/05 04:43:32;;;;;;;;;;;20.10;35.90;;;;;;5099838;28;19927;-46
2022/03/05 04:45:59;;;;;;;;;;;20.10;35.90;;;;;;5104576;28;19923;-44
2022/03/05 04:48:25;;;;;;;;;;;20.10;35.90;;;;;;5097506;28;19920;-43
2022/03/05 04:50:52;;;;;;;;;;;20.10;35.90;;;;;;5105291;28;20250;-43
2022/03/05 04:53:21;;;;;;;;;;;20.10;35.90;;;;;;5114208;28;19977;-46
2022/03/05 04:55:48;;;;;;;;;;;20.10;35.90;;;;;;5105855;28;20014;-43
2022/03/05 04:58:14;;;;;;;;;;;20.10;35.80;;;;;;5096520;28;19938;-42
2022/03/05 05:00:41;;;;;;;;;;;20.10;35.80;;;;;;5098089;28;19943;-45
2022/03/05 05:03:08;;;;;;;;;;;20.10;35.90;;;;;;5091753;28;19999;-44
2022/03/05 05:05:37;;;;;;;;;;;20.10;35.80;;;;;;5110219;28;19973;-44
2022/03/05 05:08:04;;;;;;;;;;;20.10;35.80;;;;;;5086638;28;19920;-43
2022/03/05 05:10:33;;;;;;;;;;;20.10;35.80;;;;;;5112081;28;19924;-46
2022/03/05 05:13:00;;;;;;;;;;;20.10;35.80;;;;;;5096700;28;19947;-44
2022/03/05 05:15:27;;;;;;;;;;;20.10;35.80;;;;;;5098953;28;19959;-45
2022/03/05 05:17:53;;;;;;;;;;;20.10;35.80;;;;;;5096605;28;19976;-45
2022/03/05 05:20:20;;;;;;;;;;;20.10;35.80;;;;;;5113749;28;19945;-42
2022/03/05 05:22:47;;;;;;;;;;;20.10;35.80;;;;;;5113398;28;19985;-43
2022/03/05 05:25:14;;;;;;;;;;;20.10;35.80;;;;;;5097853;28;19927;-42
2022/03/05 05:27:42;;;;;;;;;;;20.10;35.70;;;;;;5115170;28;19996;-42
2022/03/05 05:30:08;;;;;;;;;;;20.10;35.70;;;;;;5102789;28;19920;-46
2022/03/05 05:32:35;;;;;;;;;;;20.10;35.70;;;;;;5089054;28;19984;-42
2022/03/05 05:35:02;;;;;;;;;;;20.10;35.70;;;;;;5096692;28;19926;-42
2022/03/05 05:37:29;;;;;;;;;;;20.10;35.70;;;;;;5094852;28;19920;-42
2022/03/05 05:39:55;;;;;;;;;;;20.10;35.70;;;;;;5109985;28;20050;-42
2022/03/05 05:42:22;;;;;;;;;;;20.10;35.70;;;;;;5103090;28;20329;-44
2022/03/05 05:44:50;;;;;;;;;;;20.10;35.60;;;;;;5114577;28;19920;-43
2022/03/05 05:47:17;;;;;;;;;;;20.10;35.60;;;;;;5106346;28;19920;-42
2022/03/05 05:49:44;;;;;;;;;;;20.10;35.60;;;;;;5113323;28;19928;-44
2022/03/05 05:52:13;;;;;;;;;;;20.10;35.60;;;;;;5095791;28;19923;-42
2022/03/05 05:54:40;;;;;;;;;;;20.00;35.50;;;;;;5087243;28;20277;-46
2022/03/05 05:57:06;;;;;;;;;;;20.00;35.50;;;;;;5115344;28;19982;-42
2022/03/05 05:59:33;;;;;;;;;;;20.10;35.60;;;;;;5096594;28;20444;-41
2022/03/05 06:02:02;;;;;;;;;;;20.10;35.60;;;;;;5087504;28;19924;-43
2022/03/05 06:04:29;;;;;;;;;;;20.10;35.60;;;;;;5093075;28;19968;-44
2022/03/05 06:06:55;;;;;;;;;;;20.00;35.40;;;;;;5105525;28;20010;-43
2022/03/05 06:09:23;;;;;;;;;;;20.10;35.50;;;;;;5083160;28;19973;-43
2022/03/05 06:11:49;;;;;;;;;;;20.10;35.50;;;;;;5114505;28;19965;-43
2022/03/05 06:14:16;;;;;;;;;;;20.10;35.50;;;;;;5103583;28;19924;-47
2022/03/05 06:16:43;;;;;;;;;;;20.10;35.50;;;;;;5097164;28;19924;-42
2022/03/05 06:19:11;;;;;;;;;;;20.10;35.50;;;;;;5097359;28;20373;-43
2022/03/05 06:21:38;;;;;;;;;;;20.00;35.40;;;;;;5114042;28;19920;-42
2022/03/05 06:24:07;;;;;;;;;;;20.00;35.40;;;;;;5091242;28;19947;-44
2022/03/05 06:26:34;;;;;;;;;;;20.00;35.40;;;;;;5096915;28;19927;-42
2022/03/05 06:29:01;;;;;;;;;;;20.10;35.40;;;;;;5095897;28;19970;-42
2022/03/05 06:31:27;;;;;;;;;;;20.00;35.40;;;;;;5106036;28;20100;-45
2022/03/05 06:33:54;;;;;;;;;;;20.00;35.40;;;;;;5096685;28;19959;-42
2022/03/05 06:36:22;;;;;;;;;;;20.00;35.40;;;;;;5095865;28;19920;-43
2022/03/05 06:38:49;;;;;;;;;;;20.00;35.40;;;;;;5086677;28;19981;-41
2022/03/05 06:41:16;;;;;;;;;;;20.00;35.40;;;;;;5099942;28;19920;-42
2022/03/05 06:43:42;;;;;;;;;;;20.00;35.40;;;;;;5089925;28;20037;-43
2022/03/05 06:46:09;;;;;;;;;;;20.00;35.40;;;;;;5091693;28;19966;-43
2022/03/05 06:48:36;;;;;;;;;;;20.00;35.40;;;;;;5093707;28;19924;-43
2022/03/05 06:51:03;;;;;;;;;;;20.00;35.40;;;;;;5094188;28;20010;-42
2022/03/05 06:53:36;;;;;;;;;;;20.00;35.30;;;;;;5092016;28;19924;-41
2022/03/05 06:56:03;;;;;;;;;;;20.00;35.40;;;;;;5092940;28;19920;-42
2022/03/05 06:58:30;;;;;;;;;;;20.00;35.40;;;;;;5093107;28;20479;-42
2022/03/05 07:00:56;;;;;;;;;;;20.00;35.40;;;;;;5089220;28;19919;-45
2022/03/05 07:03:23;;;;;;;;;;;20.00;35.40;;;;;;5110024;28;19983;-43
2022/03/05 07:05:50;;;;;;;;;;;20.00;35.30;;;;;;5091490;28;19919;-41
2022/03/05 07:08:17;;;;;;;;;;;20.00;35.40;;;;;;5090047;28;20319;-44
2022/03/05 07:10:45;;;;;;;;;;;20.00;35.30;;;;;;5117934;27;19920;-45
2022/03/05 07:13:11;;;;;;;;;;;20.00;35.30;;;;;;5093427;28;19943;-44
2022/03/05 07:15:39;;;;;;;;;;;20.00;35.30;;;;;;5091669;28;19951;-45
2022/03/05 07:18:06;;;;;;;;;;;20.00;35.30;;;;;;5091607;28;20556;-44
2022/03/05 07:20:34;;;;;;;;;;;20.00;35.30;;;;;;5092204;28;19945;-44
2022/03/05 07:23:01;;;;;;;;;;;20.00;35.30;;;;;;5091530;28;20015;-42
2022/03/05 07:25:29;;;;;;;;;;;20.00;35.30;;;;;;5090865;28;19943;-42
2022/03/05 07:27:57;;;;;;;;;;;20.00;35.30;;;;;;5090017;28;19932;-43
2022/03/05 07:30:23;;;;;;;;;;;20.00;35.30;;;;;;5091202;28;19924;-44
2022/03/05 07:32:50;;;;;;;;;;;20.00;35.30;;;;;;5092515;28;19967;-45
2022/03/05 07:35:17;;;;;;;;;;;20.00;35.30;;;;;;5110782;28;19920;-43
2022/03/05 07:37:44;;;;;;;;;;;20.00;35.20;;;;;;5088899;28;20341;-44
2022/03/05 07:40:11;;;;;;;;;;;20.00;35.20;;;;;;5089166;28;20026;-47
2022/03/05 07:42:38;;;;;;;;;;;20.00;35.30;;;;;;5089218;28;19935;-42
2022/03/05 07:45:08;;;;;;;;;;;20.00;35.20;;;;;;5118748;27;19923;-47
2022/03/05 07:47:36;;;;;;;;;;;20.00;35.20;;;;;;5119915;27;19924;-42
2022/03/05 07:50:03;;;;;;;;;;;20.00;35.20;;;;;;5115024;27;19927;-44
2022/03/05 07:52:32;;;;;;;;;;;20.00;35.20;;;;;;5094422;28;19947;-42
2022/03/05 07:54:58;;;;;;;;;;;20.00;35.20;;;;;;5095848;28;20434;-46
2022/03/05 07:57:25;;;;;;;;;;;20.00;35.20;;;;;;5094709;28;20319;-47
2022/03/05 07:59:52;;;;;;;;;;;20.00;35.10;;;;;;5096656;28;19923;-43
2022/03/05 08:02:20;;;;;;;;;;;20.00;35.20;;;;;;5096610;28;19920;-44
2022/03/05 08:04:49;;;;;;;;;;;20.00;35.10;;;;;;5092498;28;19926;-46
2022/03/05 08:07:16;;;;;;;;;;;20.00;35.10;;;;;;5095460;28;19919;-41
2022/03/05 08:09:46;;;;;;;;;;;20.00;35.10;;;;;;5094241;28;20042;-42
2022/03/05 08:12:13;;;;;;;;;;;20.00;35.10;;;;;;5094072;28;19923;-41
2022/03/05 08:14:41;;;;;;;;;;;20.00;35.10;;;;;;5094520;28;19934;-43
2022/03/05 08:17:08;;;;;;;;;;;20.00;35.10;;;;;;5096504;28;20045;-45
2022/03/05 08:19:36;;;;;;;;;;;20.00;35.10;;;;;;5096216;28;19924;-42
2022/03/05 08:22:03;;;;;;;;;;;20.00;35.10;;;;;;5111266;28;19920;-41
2022/03/05 08:24:30;;;;;;;;;;;20.00;35.10;;;;;;5114480;28;19974;-42
2022/03/05 08:26:57;;;;;;;;;;;20.00;35.00;;;;;;5093299;28;19942;-42
2022/03/05 08:29:23;;;;;;;;;;;20.00;35.10;;;;;;5096235;28;19977;-42
2022/03/05 08:31:50;;;;;;;;;;;20.00;35.10;;;;;;5117317;27;19934;-42
2022/03/05 08:34:17;;;;;;;;;;;20.00;35.10;;;;;;5112994;28;20022;-43
2022/03/05 08:36:47;;;;;;;;;;;20.00;35.10;;;;;;5087635;28;19920;-43
2022/03/05 08:39:13;;;;;;;;;;;20.00;35.10;;;;;;5092791;28;19928;-42
2022/03/05 08:41:40;;;;;;;;;;;20.00;35.10;;;;;;5093806;28;19930;-41
2022/03/05 08:44:07;;;;;;;;;;;20.00;35.20;;;;;;5096819;28;20392;-46
2022/03/05 08:46:33;;;;;;;;;;;20.00;35.20;;;;;;5092955;28;19924;-43
2022/03/05 08:49:00;;;;;;;;;;;20.00;35.20;;;;;;5103369;28;19924;-43
2022/03/05 08:51:27;;;;;;;;;;;20.00;35.20;;;;;;5098007;28;19927;-45
2022/03/05 08:53:55;;;;;;;;;;;20.00;35.30;;;;;;5103035;28;20385;-42
2022/03/05 08:56:23;;;;;;;;;;;20.00;35.30;;;;;;5083401;28;19931;-41
2022/03/05 08:58:49;;;;;;;;;;;20.00;35.30;;;;;;5126536;27;19924;-42
2022/03/05 09:01:16;;;;;;;;;;;20.00;35.30;;;;;;5091281;28;19957;-41
2022/03/05 09:03:43;;;;;;;;;;;20.00;35.30;;;;;;5084674;27;19927;-41
2022/03/05 09:06:10;;;;;;;;;;;20.10;35.40;;;;;;5097814;28;19958;-41
2022/03/05 09:08:38;;;;;;;;;;;20.10;35.50;;;;;;5091690;28;20444;-43
2022/03/05 09:11:06;;;;;;;;;;;20.10;35.50;;;;;;5099153;28;19931;-42
2022/03/05 09:13:33;;;;;;;;;;;20.00;35.40;;;;;;5108922;28;20018;-41
2022/03/05 09:15:59;;;;;;;;;;;20.00;35.50;;;;;;5119821;27;19928;-41
2022/03/05 09:18:27;;;;;;;;;;;20.10;35.60;;;;;;5090430;28;19946;-42
2022/03/05 09:20:54;;;;;;;;;;;20.10;36.20;;;;;;5106410;27;19988;-43
2022/03/05 09:23:21;;;;;;;;;;;20.10;35.60;;;;;;5091596;27;19920;-41
2022/03/05 09:25:47;;;;;;;;;;;20.10;35.70;;;;;;5094777;27;19919;-46
2022/03/05 09:28:16;;;;;;;;;;;20.10;35.80;;;;;;5087793;27;19931;-41
2022/03/05 09:30:42;;;;;;;;;;;20.10;35.80;;;;;;5113585;27;20400;-41
2022/03/05 09:33:09;;;;;;;;;;;20.10;35.80;;;;;;5090843;28;20010;-43
2022/03/05 09:35:38;;;;;;;;;;;20.10;35.80;;;;;;5101893;28;19939;-42
2022/03/05 09:38:05;;;;;;;;;;;20.10;35.80;;;;;;5103205;27;19920;-43
2022/03/05 09:40:32;;;;;;;;;;;20.10;35.80;;;;;;5109486;28;20276;-41
2022/03/05 09:42:59;;;;;;;;;;;20.10;35.80;;;;;;5075363;28;19928;-43
2022/03/05 09:45:27;;;;;;;;;;;20.10;35.80;;;;;;5097712;28;19974;-41
2022/03/05 09:47:53;;;;;;;;;;;20.10;35.80;;;;;;5081590;28;20023;-41
2022/03/05 09:50:20;;;;;;;;;;;20.10;35.90;;;;;;5086967;28;19930;-44
2022/03/05 09:52:47;;;;;;;;;;;20.10;35.80;;;;;;5086505;28;19959;-41
2022/03/05 09:55:14;;;;;;;;;;;20.10;35.90;;;;;;5088242;28;19924;-41
2022/03/05 09:57:42;;;;;;;;;;;20.10;35.90;;;;;;5084524;28;19989;-43
2022/03/05 10:00:09;;;;;;;;;;;20.10;36.00;;;;;;5089265;28;19919;-43
2022/03/05 10:02:38;;;;;;;;;;;20.10;35.90;;;;;;5091835;28;20161;-45
2022/03/05 10:05:17;;;;;;;;;;;20.10;35.90;;;;;;5080881;27;20130;-45
2022/03/05 10:08:01;;;;;;;;;;;20.10;35.90;;;;;;5109657;27;19976;-42
2022/03/05 10:10:28;;;;;;;;;;;20.10;35.90;;;;;;5106969;27;19941;-41
2022/03/05 10:12:54;;;;;;;;;;;20.10;35.90;;;;;;5111676;27;19973;-45
2022/03/05 10:15:21;;;;;;;;;;;20.10;35.90;;;;;;5120668;27;20027;-42
2022/03/05 10:17:50;;;;;;;;;;;20.10;36.00;;;;;;5109780;27;19977;-42
2022/03/05 10:20:17;;;;;;;;;;;20.10;36.00;;;;;;5101294;27;19924;-43
2022/03/05 10:22:50;;;;;;;;;;;20.10;36.00;;;;;;5108040;27;19933;-45
2022/03/05 10:25:16;;;;;;;;;;;20.10;36.00;;;;;;5127595;27;20010;-43
2022/03/05 10:27:43;;;;;;;;;;;20.10;36.00;;;;;;5106809;27;19975;-44
2022/03/05 10:30:10;;;;;;;;;;;20.20;36.20;;;;;;5113917;27;20324;-42
2022/03/05 10:32:38;;;;;;;;;;;20.20;36.20;;;;;;5103669;27;19955;-42
2022/03/05 10:35:11;;;;;;;;;;;20.20;36.20;;;;;;5108882;27;19928;-43
2022/03/05 10:37:37;;;;;;;;;;;20.20;36.20;;;;;;5129804;27;19919;-43
2022/03/05 10:40:05;;;;;;;;;;;20.20;36.30;;;;;;5111707;27;19987;-44
2022/03/05 10:42:31;;;;;;;;;;;20.20;36.30;;;;;;5099555;28;19951;-44
2022/03/05 10:45:01;;;;;;;;;;;20.20;36.30;;;;;;5110537;27;19919;-44
2022/03/05 10:47:36;;;;;;;;;;;20.20;36.30;;;;;;5127443;27;20328;-44
2022/03/05 10:50:07;;;;;;;;;;;20.10;36.20;;;;;;5100732;27;20111;-45
2022/03/05 10:52:44;;;;;;;;;;;20.20;36.30;;;;;;5105152;27;20026;-44
2022/03/05 10:55:14;;;;;;;;;;;20.20;36.40;;;;;;5129907;27;19919;-44
2022/03/05 10:57:41;;;;;;;;;;;20.20;36.40;;;;;;5109485;27;19926;-42
2022/03/05 11:00:08;;;;;;;;;;;20.20;36.40;;;;;;5110295;27;20025;-42
2022/03/05 11:02:35;;;;;;;;;;;20.20;36.40;;;;;;5099904;27;20360;-43
2022/03/05 11:05:02;;;;;;;;;;;20.20;36.40;;;;;;5100891;27;19919;-41
2022/03/05 11:07:30;;;;;;;;;;;20.20;36.40;;;;;;5111953;27;20023;-44
2022/03/05 11:09:57;;;;;;;;;;;20.20;36.40;;;;;;5106177;27;20014;-44
2022/03/05 11:12:24;;;;;;;;;;;20.20;36.40;;;;;;5120374;27;20391;-43
2022/03/05 11:14:50;;;;;;;;;;;20.20;36.40;;;;;;5123292;27;19942;-42
2022/03/05 11:17:17;;;;;;;;;;;20.20;36.50;;;;;;5108109;27;19928;-42
2022/03/05 11:19:44;;;;;;;;;;;20.20;36.50;;;;;;5107681;28;19930;-45
2022/03/05 11:22:12;;;;;;;;;;;20.20;36.50;;;;;;5103002;28;19931;-46
2022/03/05 11:24:40;;;;;;;;;;;20.20;36.50;;;;;;5107894;28;19955;-44
2022/03/05 11:27:07;;;;;;;;;;;20.20;36.50;;;;;;5108267;28;20357;-45
2022/03/05 11:29:51;;;;;;;;;;;20.20;36.60;;;;;;5099814;28;19973;-44
2022/03/05 11:32:19;;;;;;;;;;;20.20;36.60;;;;;;5112634;28;19919;-44
2022/03/05 11:34:46;;;;;;;;;;;20.20;36.60;;;;;;5145396;27;19930;-42
2022/03/05 11:37:16;;;;;;;;;;;20.30;36.70;;;;;;5112726;28;19924;-45
2022/03/05 11:39:44;;;;;;;;;;;20.20;36.70;;;;;;5133236;28;19923;-46
2022/03/05 11:42:11;;;;;;;;;;;20.30;36.80;;;;;;5107837;28;19955;-55
2022/03/05 11:44:41;;;;;;;;;;;20.30;36.80;;;;;;5105620;28;20010;-58
2022/03/05 11:47:27;;;;;;;;;;;20.30;36.70;;;;;;5106226;28;19942;-48
2022/03/05 11:50:07;;;;;;;;;;;20.30;36.30;;;;;;5099924;28;20429;-58
2022/03/05 11:52:48;;;;;;;;;;;20.30;35.80;;;;;;5105648;28;20425;-52
2022/03/05 11:55:17;;;;;;;;;;;20.20;35.20;;;;;;5105176;28;19923;-52
2022/03/05 11:57:44;;;;;;;;;;;20.20;34.80;;;;;;5102910;28;20022;-50
2022/03/05 12:00:11;;;;;;;;;;;20.20;35.10;;;;;;5103226;28;19926;-48
2022/03/05 12:02:41;;;;;;;;;;;20.20;34.30;;;;;;5103791;28;19970;-56
2022/03/05 12:05:08;;;;;;;;;;;20.10;34.00;;;;;;5104438;28;20319;-54
2022/03/05 12:07:35;;;;;;;;;;;20.10;33.30;;;;;;5116298;27;19958;-54
2022/03/05 12:10:04;;;;;;;;;;;20.10;33.70;;;;;;5107366;28;19930;-53
2022/03/05 12:12:33;;;;;;;;;;;20.10;33.60;;;;;;5094449;28;19954;-50
2022/03/05 12:15:12;;;;;;;;;;;20.10;34.00;;;;;;5106215;28;19943;-59
2022/03/05 12:17:40;;;;;;;;;;;20.10;33.30;;;;;;5106161;28;19927;-51
2022/03/05 12:20:07;;;;;;;;;;;20.00;33.20;;;;;;5112423;28;20379;-59
2022/03/05 12:22:34;;;;;;;;;;;20.00;33.10;;;;;;5101263;27;20368;-60
2022/03/05 12:25:01;;;;;;;;;;;20.00;33.00;;;;;;5114465;28;19955;-60
2022/03/05 12:27:28;;;;;;;;;;;20.00;33.00;;;;;;5102846;28;19927;-56
2022/03/05 12:29:56;;;;;;;;;;;20.00;32.90;;;;;;5124207;28;19924;-49
2022/03/05 12:32:28;;;;;;;;;;;20.00;32.90;;;;;;5103990;27;20066;-52
2022/03/05 12:35:01;;;;;;;;;;;20.00;32.90;;;;;;5105511;27;19935;-59
2022/03/05 12:37:30;;;;;;;;;;;19.90;32.80;;;;;;5126343;27;19919;-60
2022/03/05 12:39:57;;;;;;;;;;;19.90;32.80;;;;;;5109420;27;19938;-57
2022/03/05 12:42:26;;;;;;;;;;;19.90;32.70;;;;;;5104989;27;19966;-49
2022/03/05 12:44:58;;;;;;;;;;;19.90;32.70;;;;;;5128781;27;19919;-57
2022/03/05 12:47:32;;;;;;;;;;;19.90;32.70;;;;;;5107933;27;20073;-49
2022/03/05 12:49:59;;;;;;;;;;;19.90;32.70;;;;;;5109676;27;19919;-58
2022/03/05 12:52:26;;;;;;;;;;;19.90;32.70;;;;;;5103921;27;20268;-55
2022/03/05 12:54:55;;;;;;;;;;;19.90;32.70;;;;;;5106401;27;19962;-48
2022/03/05 12:57:22;;;;;;;;;;;19.90;32.70;;;;;;5107593;27;19981;-52
2022/03/05 12:59:49;;;;;;;;;;;19.90;32.70;;;;;;5124765;27;20861;-62
2022/03/05 13:02:17;;;;;;;;;;;19.80;32.50;;;;;;5106062;27;19923;-51
2022/03/05 13:04:45;;;;;;;;;;;19.80;32.50;;;;;;5106846;27;19955;-52
2022/03/05 13:07:12;;;;;;;;;;;19.80;32.60;;;;;;5105785;27;19930;-51
2022/03/05 13:09:39;;;;;;;;;;;19.80;32.60;;;;;;5105155;27;20022;-48
2022/03/05 13:12:06;;;;;;;;;;;19.80;32.60;;;;;;5106814;27;19923;-48
2022/03/05 13:14:33;;;;;;;;;;;19.80;32.60;;;;;;5104721;27;20026;-52
2022/03/05 13:16:59;;;;;;;;;;;19.80;32.60;;;;;;5125106;27;19930;-47
2022/03/05 13:19:26;;;;;;;;;;;19.80;32.70;;;;;;5124174;27;19979;-51
2022/03/05 13:21:54;;;;;;;;;;;19.80;32.60;;;;;;5105929;27;20015;-52
2022/03/05 13:24:21;;;;;;;;;;;19.80;32.60;;;;;;5106346;27;19920;-53
2022/03/05 13:26:49;;;;;;;;;;;19.80;32.60;;;;;;5126110;27;19919;-51
2022/03/05 13:29:16;;;;;;;;;;;19.80;32.60;;;;;;5099657;27;20214;-57
2022/03/05 13:31:43;;;;;;;;;;;19.80;32.70;;;;;;5104370;27;20014;-42
2022/03/05 13:34:19;;;;;;;;;;;19.80;32.70;;;;;;5108965;28;19919;-41
2022/03/05 13:36:47;;;;;;;;;;;19.80;33.00;;;;;;5133506;27;19920;-44
2022/03/05 13:39:15;;;;;;;;;;;19.80;33.40;;;;;;5129839;27;19927;-42
2022/03/05 13:41:43;;;;;;;;;;;19.80;33.90;;;;;;5116583;27;19919;-43
2022/03/05 13:44:20;;;;;;;;;;;19.80;34.40;;;;;;5138164;27;19923;-43
2022/03/05 13:46:47;;;;;;;;;;;19.90;34.80;;;;;;5124747;27;19920;-41
2022/03/05 13:49:15;;;;;;;;;;;19.90;35.20;;;;;;5121124;27;19920;-41
2022/03/05 13:51:47;;;;;;;;;;;19.90;35.50;;;;;;5121507;27;19920;-42
2022/03/05 13:54:15;;;;;;;;;;;20.00;35.80;;;;;;5122001;27;20312;-41
2022/03/05 13:56:43;;;;;;;;;;;20.00;36.00;;;;;;5110556;27;20014;-43
2022/03/05 13:59:09;;;;;;;;;;;20.00;36.10;;;;;;5107865;27;19919;-42
2022/03/05 14:01:36;;;;;;;;;;;20.10;36.40;;;;;;5110867;27;20015;-42
2022/03/05 14:04:07;;;;;;;;;;;20.10;36.40;;;;;;5116604;27;19923;-41
2022/03/05 14:06:44;;;;;;;;;;;20.10;36.50;;;;;;5136424;27;19942;-42
2022/03/05 14:09:10;;;;;;;;;;;20.20;36.70;;;;;;5118489;27;19961;-43
2022/03/05 14:11:41;;;;;;;;;;;20.20;36.80;;;;;;5118432;27;19980;-41
2022/03/05 14:14:08;;;;;;;;;;;20.20;36.80;;;;;;5118893;27;19961;-41
2022/03/05 14:16:35;;;;;;;;;;;20.20;36.90;;;;;;5117399;27;20237;-45
2022/03/05 14:19:02;;;;;;;;;;;20.20;36.90;;;;;;5104547;27;20307;-41